Time;durP1;ratioP1;P1;durP2;ratioP2;P2;SDS_P1;SDS_P2;PMS_P1;PMS_P2;Temp;Humidity;BMP_temperature;BMP_pressure;BME280_temperature;BME280_humidity;BME280_pressure;Samples;Min_cycle;Max_cycle;Signal;HPM_P1;HPM_P2
2023/04/22 00:00:01;;;;;;;13.38;4.40;;;4.90;99.90;;;3.51;86.11;101269.38;5000026;28;21058;-75
2023/04/22 00:02:28;;;;;;;13.82;4.38;;;4.90;99.90;;;3.46;86.13;101267.69;5032554;28;20037;-76
2023/04/22 00:04:56;;;;;;;17.63;4.82;;;4.80;99.90;;;3.43;86.48;101270.28;5024590;28;20045;-76
2023/04/22 00:07:22;;;;;;;12.65;4.07;;;4.80;99.90;;;3.40;88.18;101272.94;4997220;28;20117;-76
2023/04/22 00:09:48;;;;;;;11.02;3.85;;;4.80;99.90;;;3.43;89.21;101272.88;5030537;28;20391;-75
2023/04/22 00:12:14;;;;;;;12.00;4.43;;;4.80;99.90;;;3.45;90.28;101275.50;5029015;28;20551;-75
2023/04/22 00:14:40;;;;;;;10.82;4.32;;;4.90;99.90;;;3.49;90.40;101266.78;5020903;28;20061;-76
2023/04/22 00:17:06;;;;;;;18.67;4.95;;;4.90;99.90;;;3.54;90.91;101258.94;5017726;28;20716;-75
2023/04/22 00:19:33;;;;;;;16.85;4.00;;;4.90;99.90;;;3.54;90.65;101258.94;5001081;28;20099;-75
2023/04/22 00:22:01;;;;;;;10.15;4.22;;;4.90;99.90;;;3.52;90.36;101271.09;5012754;28;20045;-75
2023/04/22 00:24:27;;;;;;;12.32;3.80;;;4.90;99.90;;;3.46;89.79;101252.06;5028077;28;20032;-75
2023/04/22 00:26:52;;;;;;;12.90;4.15;;;4.80;99.90;;;3.41;89.08;101260.78;5032000;28;20112;-75
2023/04/22 00:29:18;;;;;;;21.70;5.03;;;4.70;99.90;;;3.32;89.16;101253.91;5013244;28;20152;-76
2023/04/22 00:31:44;;;;;;;8.85;3.67;;;4.70;99.90;;;3.26;90.07;101254.84;5020323;28;20044;-76
2023/04/22 00:34:10;;;;;;;11.65;4.38;;;4.70;99.90;;;3.25;91.71;101260.03;5027983;28;20032;-75
2023/04/22 00:36:36;;;;;;;11.27;4.60;;;4.70;99.90;;;3.27;92.59;101260.91;5022763;28;20037;-75
2023/04/22 00:39:02;;;;;;;12.40;3.90;;;4.70;99.90;;;3.28;93.12;101250.47;5021088;28;20034;-75
2023/04/22 00:41:30;;;;;;;14.05;4.60;;;4.70;99.90;;;3.32;93.44;101253.03;5020925;28;20037;-74
2023/04/22 00:43:57;;;;;;;11.55;4.40;;;4.70;99.90;;;3.32;93.50;101256.50;4998157;28;20053;-75
2023/04/22 00:46:23;;;;;;;12.48;4.13;;;4.70;99.90;;;3.32;93.73;101255.66;5030032;28;20032;-75
2023/04/22 00:48:50;;;;;;;16.13;4.72;;;4.70;99.90;;;3.31;94.27;101251.34;5032002;28;20096;-75
2023/04/22 00:51:16;;;;;;;13.82;4.70;;;4.70;99.90;;;3.29;94.30;101251.34;5025267;28;20037;-75
2023/04/22 00:53:41;;;;;;;13.60;4.72;;;4.70;99.90;;;3.29;94.56;101248.72;5016239;28;20033;-75
2023/04/22 00:56:07;;;;;;;11.52;4.30;;;4.70;99.90;;;3.32;94.27;101261.72;4995223;28;20041;-75
2023/04/22 00:58:33;;;;;;;12.50;4.47;;;4.70;99.90;;;3.31;93.67;101254.78;5030841;28;20036;-74
2023/04/22 01:00:59;;;;;;;8.80;3.25;;;4.70;99.90;;;3.26;93.02;101253.94;5015432;28;20080;-75
2023/04/22 01:03:29;;;;;;;8.25;2.60;;;4.60;99.90;;;3.14;91.48;101243.66;5030056;28;20401;-75
2023/04/22 01:05:56;;;;;;;12.95;4.45;;;4.50;99.90;;;3.04;90.97;101237.63;5019208;28;20033;-76
2023/04/22 01:08:30;;;;;;;15.32;4.10;;;4.50;99.90;;;3.03;91.06;101239.38;5002551;28;20033;-75
2023/04/22 01:10:56;;;;;;;11.32;4.32;;;4.50;99.90;;;3.02;90.83;101234.19;5006274;28;20417;-75
2023/04/22 01:13:23;;;;;;;11.45;3.80;;;4.50;99.90;;;3.01;91.44;101222.91;5026959;28;20126;-75
2023/04/22 01:15:50;;;;;;;11.30;4.80;;;4.40;99.90;;;2.98;91.72;101228.16;5032307;28;20564;-75
2023/04/22 01:18:16;;;;;;;13.93;4.80;;;4.40;99.90;;;3.01;92.55;101227.28;5003216;28;20413;-75
2023/04/22 01:20:42;;;;;;;13.05;4.55;;;4.50;99.90;;;3.07;93.66;101237.63;5023241;28;20033;-75
2023/04/22 01:23:18;;;;;;;21.05;6.05;;;4.50;99.90;;;3.13;94.70;101227.16;5021574;28;20039;-75
2023/04/22 01:25:45;;;;;;;11.52;5.05;;;4.50;99.90;;;3.20;95.13;101228.84;5000570;28;20065;-75
2023/04/22 01:28:12;;;;;;;12.30;5.20;;;4.60;99.90;;;3.25;95.78;101228.81;5029406;28;20029;-76
2023/04/22 01:30:39;;;;;;;12.90;5.55;;;4.70;99.90;;;3.29;96.11;101227.91;5014850;28;20645;-75
2023/04/22 01:33:05;;;;;;;10.10;5.45;;;4.70;99.90;;;3.34;96.43;101227.88;5027347;28;20045;-75
2023/04/22 01:35:35;;;;;;;20.15;6.30;;;4.70;99.90;;;3.38;96.27;101224.38;5019678;28;20084;-75
2023/04/22 01:38:04;;;;;;;15.07;5.70;;;4.70;99.90;;;3.40;96.09;101222.63;4985579;28;20041;-75
2023/04/22 01:40:34;;;;;;;12.77;6.05;;;4.80;99.90;;;3.41;96.47;101225.22;5000843;28;20740;-75
2023/04/22 01:43:03;;;;;;;15.27;6.38;;;4.80;99.90;;;3.44;96.58;101219.97;5029140;28;20712;-76
2023/04/22 01:45:30;;;;;;;13.55;6.53;;;4.80;99.90;;;3.47;97.04;101222.53;5020555;28;20099;-76
2023/04/22 01:47:56;;;;;;;17.55;6.68;;;4.80;99.90;;;3.49;97.53;101225.97;5019218;28;20049;-75
2023/04/22 01:50:22;;;;;;;18.85;6.72;;;4.90;99.90;;;3.52;97.44;101219.03;5021078;28;20043;-76
2023/04/22 01:52:48;;;;;;;18.85;7.00;;;4.90;99.90;;;3.56;97.98;101218.13;5022660;28;20029;-75
2023/04/22 01:55:15;;;;;;;14.75;7.28;;;4.90;99.90;;;3.60;97.85;101227.63;5014940;28;20395;-75
2023/04/22 01:57:41;;;;;;;15.95;7.50;;;5.00;99.90;;;3.62;98.31;101221.53;5003225;28;20740;-75
2023/04/22 02:00:08;;;;;;;15.88;7.72;;;5.00;99.90;;;3.65;98.36;101221.50;5019218;28;20686;-75
2023/04/22 02:02:34;;;;;;;15.10;7.70;;;5.10;99.90;;;3.70;99.11;101229.25;5022392;28;20052;-75
2023/04/22 02:05:00;;;;;;;19.42;8.93;;;5.10;99.90;;;3.73;99.41;101220.56;5027407;28;20572;-75
2023/04/22 02:07:26;;;;;;;20.75;8.00;;;5.10;99.90;;;3.76;100.00;101210.97;5012797;28;20046;-75
2023/04/22 02:09:52;;;;;;;14.70;8.73;;;5.10;99.90;;;3.80;100.00;101211.78;5026906;28;20033;-75
2023/04/22 02:12:18;;;;;;;19.10;9.50;;;5.20;99.90;;;3.87;100.00;101206.50;5028016;28;20112;-75
2023/04/22 02:14:44;;;;;;;21.10;9.48;;;5.20;99.90;;;3.91;100.00;101212.56;5028155;28;20041;-75
2023/04/22 02:17:12;;;;;;;16.73;8.55;;;5.30;99.90;;;3.94;100.00;101206.44;5016245;28;20579;-75
2023/04/22 02:19:38;;;;;;;21.08;9.32;;;5.30;99.90;;;3.95;100.00;101211.59;5008122;28;20089;-76
2023/04/22 02:22:04;;;;;;;19.70;9.90;;;5.30;99.90;;;3.98;100.00;101210.75;5028587;28;20055;-75
2023/04/22 02:24:30;;;;;;;18.20;9.20;;;5.40;99.90;;;4.04;100.00;101205.44;5025830;28;20029;-75
2023/04/22 02:26:57;;;;;;;21.13;8.98;;;5.50;99.90;;;4.07;100.00;101200.19;5010578;28;20048;-76
2023/04/22 02:29:23;;;;;;;16.85;9.50;;;5.50;99.90;;;4.13;100.00;101197.53;5015982;28;20044;-76
2023/04/22 02:31:49;;;;;;;24.95;9.45;;;5.60;99.90;;;4.25;100.00;101197.34;4977741;28;20029;-75
2023/04/22 02:34:18;;;;;;;17.60;9.13;;;5.60;99.90;;;4.34;100.00;101192.91;5004541;28;20029;-76
2023/04/22 02:36:44;;;;;;;14.65;9.27;;;5.70;99.90;;;4.41;100.00;101182.38;5007265;28;20044;-76
2023/04/22 02:39:10;;;;;;;24.27;9.82;;;5.80;99.90;;;4.52;100.00;101190.06;5025240;28;20034;-75
2023/04/22 02:41:36;;;;;;;20.65;9.55;;;5.90;99.90;;;4.57;99.83;101180.41;4993157;28;20036;-75
2023/04/22 02:44:02;;;;;;;19.38;8.70;;;6.00;99.90;;;4.67;98.68;101186.38;5010470;28;20655;-76
2023/04/22 02:46:27;;;;;;;18.77;8.40;;;6.00;99.90;;;4.73;97.77;101181.91;5029263;28;20113;-76
2023/04/22 02:48:53;;;;;;;15.68;8.32;;;6.10;99.90;;;4.77;96.54;101174.88;5010711;28;20040;-77
2023/04/22 02:51:21;;;;;;;15.00;8.23;;;6.20;99.90;;;4.87;95.76;101184.28;5008642;28;20044;-76
2023/04/22 02:53:47;;;;;;;16.17;8.15;;;6.20;99.90;;;4.90;94.85;101179.03;5010371;28;20433;-76
2023/04/22 02:56:13;;;;;;;17.00;8.50;;;6.30;99.90;;;4.92;94.02;101174.66;5029549;28;20044;-75
2023/04/22 02:58:39;;;;;;;14.18;8.43;;;6.30;99.90;;;4.95;92.99;101168.53;5017192;28;20041;-76
2023/04/22 03:01:04;;;;;;;18.23;9.50;;;6.30;99.90;;;4.91;92.22;101170.31;5020143;28;20033;-76
2023/04/22 03:03:30;;;;;;;17.95;9.15;;;6.30;99.90;;;4.89;91.99;101160.78;5000934;28;20507;-76
2023/04/22 03:06:04;;;;;;;21.88;9.10;;;6.30;99.90;;;4.91;91.63;101167.72;4989791;28;20045;-76
2023/04/22 03:08:30;;;;;;;20.55;8.48;;;6.30;99.90;;;4.94;91.32;101167.66;4985472;28;20049;-76
2023/04/22 03:10:55;;;;;;;22.50;8.00;;;6.30;99.90;;;5.02;90.58;101162.31;5027356;28;20100;-75
2023/04/22 03:13:21;;;;;;;14.90;7.82;;;6.40;99.90;;;5.10;90.39;101155.22;5016871;28;20533;-75
2023/04/22 03:15:47;;;;;;;20.05;8.43;;;6.40;99.90;;;5.07;89.90;101154.41;5002370;28;20477;-75
2023/04/22 03:18:20;;;;;;;21.27;8.15;;;6.40;99.90;;;5.06;89.53;101150.94;5019819;28;20120;-75
2023/04/22 03:20:46;;;;;;;18.58;8.45;;;6.40;99.90;;;5.05;88.90;101154.41;5029756;28;20048;-75
2023/04/22 03:23:12;;;;;;;13.15;8.15;;;6.40;99.90;;;4.96;88.66;101151.97;5019759;28;20049;-75
2023/04/22 03:25:38;;;;;;;13.85;7.85;;;6.30;99.90;;;4.94;88.64;101156.34;4993433;28;20136;-75
2023/04/22 03:28:04;;;;;;;17.80;8.50;;;6.30;99.90;;;4.95;88.80;101152.88;5011159;28;20037;-75
2023/04/22 03:30:30;;;;;;;19.38;9.32;;;6.30;99.90;;;4.96;88.20;101151.13;4977862;28;20583;-75
2023/04/22 03:32:57;;;;;;;20.58;7.80;;;6.30;99.90;;;4.93;88.52;101154.66;5009190;28;20038;-76
2023/04/22 03:35:23;;;;;;;18.67;9.07;;;6.20;99.90;;;4.86;88.36;101148.66;5001974;28;20033;-76
2023/04/22 03:37:49;;;;;;;14.50;8.00;;;6.20;99.90;;;4.82;89.04;101156.56;5005303;28;20040;-75
2023/04/22 03:40:15;;;;;;;18.95;9.20;;;6.20;99.90;;;4.80;88.61;101148.75;5017358;28;21326;-76
2023/04/22 03:42:41;;;;;;;15.48;8.90;;;6.10;99.90;;;4.75;88.73;101149.69;5015683;28;20059;-76
2023/04/22 03:45:07;;;;;;;19.95;9.15;;;6.10;99.90;;;4.70;88.52;101141.97;5010205;28;20030;-76
2023/04/22 03:47:40;;;;;;;15.63;8.18;;;6.00;99.90;;;4.65;88.76;101136.81;5033361;28;20042;-76
2023/04/22 03:50:07;;;;;;;16.05;8.20;;;6.00;99.90;;;4.62;88.61;101136.88;5035280;28;20045;-76
2023/04/22 03:52:32;;;;;;;18.02;9.10;;;5.90;99.90;;;4.60;88.68;101142.97;5018541;28;20508;-75
2023/04/22 03:54:58;;;;;;;18.77;9.18;;;5.90;99.90;;;4.58;88.76;101137.81;5035691;28;20033;-76
2023/04/22 03:57:26;;;;;;;15.20;8.60;;;5.90;99.90;;;4.53;89.34;101129.16;4998105;28;20105;-75
2023/04/22 03:59:52;;;;;;;18.15;8.88;;;5.90;99.90;;;4.54;89.75;101128.31;5029158;28;20041;-76
2023/04/22 04:02:18;;;;;;;15.32;8.48;;;5.90;99.90;;;4.55;89.68;101127.41;4999390;28;20072;-74
2023/04/22 04:04:44;;;;;;;18.48;8.85;;;5.90;99.90;;;4.60;89.69;101129.94;5018428;28;20486;-75
2023/04/22 04:07:09;;;;;;;23.98;9.32;;;5.90;99.90;;;4.64;89.58;101131.63;5010665;28;20122;-75
2023/04/22 04:09:35;;;;;;;16.83;8.15;;;5.90;99.90;;;4.68;89.81;101123.72;5007375;28;20042;-75
2023/04/22 04:12:02;;;;;;;13.60;8.48;;;6.00;99.90;;;4.76;89.45;101131.44;5014875;28;20143;-76
2023/04/22 04:14:27;;;;;;;17.20;8.63;;;6.10;99.90;;;4.87;89.31;101133.88;5019421;28;20060;-75
2023/04/22 04:16:53;;;;;;;16.92;9.10;;;6.10;99.90;;;4.93;88.54;101133.78;5017472;28;20410;-75
2023/04/22 04:19:22;;;;;;;19.35;8.63;;;6.10;99.90;;;5.01;88.44;101131.00;5018939;28;20029;-75
2023/04/22 04:21:48;;;;;;;15.85;8.73;;;6.20;99.90;;;5.07;87.84;101138.75;5005037;28;20050;-75
2023/04/22 04:24:13;;;;;;;15.98;8.55;;;6.30;99.90;;;5.10;87.53;101134.34;5023912;28;20098;-76
2023/04/22 04:26:39;;;;;;;27.48;8.57;;;6.30;99.90;;;5.21;87.22;101133.28;5002746;28;20055;-76
2023/04/22 04:29:05;;;;;;;17.60;7.72;;;6.50;99.90;;;5.28;87.12;101132.28;5012340;28;20033;-76
2023/04/22 04:31:31;;;;;;;18.35;8.15;;;6.50;99.90;;;5.37;86.71;101133.88;5021424;28;20130;-75
2023/04/22 04:33:59;;;;;;;18.20;7.57;;;6.60;99.90;;;5.42;86.16;101134.63;5020684;28;20033;-75
2023/04/22 04:36:28;;;;;;;16.27;8.27;;;6.60;99.90;;;5.53;85.86;101140.53;4979502;28;20428;-75
2023/04/22 04:38:55;;;;;;;17.05;7.70;;;6.70;99.90;;;5.63;85.50;101138.59;5010438;28;20040;-76
2023/04/22 04:41:20;;;;;;;17.65;8.10;;;6.90;99.90;;;6.11;84.91;101143.72;4982259;28;20037;-75
2023/04/22 04:43:47;;;;;;;22.00;7.95;;;8.10;99.90;;;8.97;79.94;101157.00;4998797;28;20029;-76
2023/04/22 04:46:13;;;;;;;15.98;8.18;;;9.50;99.90;;;11.28;71.06;101176.38;5010331;28;20096;-76
2023/04/22 04:48:41;;;;;;;20.33;7.80;;;9.90;99.90;;;13.37;63.68;101176.44;5033927;28;20529;-76
2023/04/22 04:51:07;;;;;;;14.90;7.38;;;12.60;99.90;;;15.59;58.06;101180.88;5009713;28;20039;-76
2023/04/22 04:53:33;;;;;;;16.95;7.25;;;14.00;99.90;;;17.13;53.57;101195.16;4990001;28;20044;-74
2023/04/22 04:55:59;;;;;;;15.75;6.50;;;15.10;99.90;;;17.96;49.90;101201.00;5048473;28;20033;-76
2023/04/22 04:58:25;;;;;;;16.27;6.90;;;16.20;99.90;;;19.58;47.70;101221.22;4987331;28;20029;-76
2023/04/22 05:00:51;;;;;;;12.07;6.82;;;17.10;99.90;;;20.67;45.15;101229.56;5022783;28;20060;-75
2023/04/22 05:03:19;;;;;;;14.68;6.80;;;17.80;99.90;;;20.90;43.56;101232.19;5011810;28;20554;-76
2023/04/22 05:05:47;;;;;;;10.75;6.60;;;18.40;99.70;;;21.55;42.30;101243.72;5013277;28;20040;-76
2023/04/22 05:08:13;;;;;;;10.60;6.20;;;18.80;97.40;;;21.87;41.13;101250.88;5005125;28;20176;-76
2023/04/22 05:10:41;;;;;;;11.15;5.95;;;19.00;96.40;;;22.00;40.59;101258.69;5009420;28;20127;-76
2023/04/22 05:13:07;;;;;;;12.57;6.22;;;19.30;97.10;;;23.01;39.72;101273.09;4990562;28;20033;-76
2023/04/22 05:15:33;;;;;;;13.25;6.53;;;19.90;94.90;;;23.42;38.36;101274.66;4996360;28;20041;-76
2023/04/22 05:18:01;;;;;;;13.25;6.57;;;20.30;95.60;;;24.18;37.58;101290.00;5012897;28;20401;-76
2023/04/22 05:20:27;;;;;;;11.23;6.47;;;20.80;95.00;;;25.06;36.16;101303.91;5010337;28;20059;-76
2023/04/22 05:22:53;;;;;;;16.08;6.40;;;21.30;92.90;;;24.97;35.27;101302.13;5015135;28;20152;-76
2023/04/22 05:25:19;;;;;;;14.23;6.10;;;21.50;93.30;;;25.73;34.82;101307.06;5003638;28;20545;-76
2023/04/22 05:27:45;;;;;;;11.07;6.40;;;22.00;94.10;;;26.80;33.79;101322.09;5018739;28;20067;-76
2023/04/22 05:30:11;;;;;;;9.10;5.88;;;22.50;93.40;;;27.36;33.07;101326.97;4994309;28;20071;-76
2023/04/22 05:32:37;;;;;;;10.55;6.00;;;23.00;92.50;;;28.07;32.16;101330.88;5002991;28;20057;-76
2023/04/22 05:35:05;;;;;;;9.63;6.10;;;23.00;90.30;;;26.70;33.21;101321.38;5021383;28;20029;-76
2023/04/22 05:37:31;;;;;;;9.77;5.60;;;23.10;90.10;;;26.81;32.43;101328.34;4975108;28;20038;-76
2023/04/22 05:39:56;;;;;;;14.30;5.80;;;22.80;90.00;;;26.10;33.24;101327.59;4995356;28;20086;-76
2023/04/22 05:42:22;;;;;;;9.90;5.47;;;22.60;89.30;;;25.41;33.42;101326.50;5003207;28;20128;-76
2023/04/22 05:44:48;;;;;;;15.82;5.85;;;22.70;91.60;;;26.78;32.87;101345.72;4999031;28;20045;-76
2023/04/22 05:47:14;;;;;;;12.68;5.50;;;22.60;89.80;;;26.11;33.06;101344.63;5016337;28;20045;-76
2023/04/22 05:49:47;;;;;;;10.10;5.75;;;22.70;88.90;;;25.96;32.88;101341.66;5008839;28;20116;-76
2023/04/22 05:52:13;;;;;;;9.00;5.57;;;22.40;90.40;;;25.42;33.69;101348.91;5019476;28;20087;-76
2023/04/22 05:54:38;;;;;;;12.30;5.82;;;22.50;91.30;;;26.64;32.54;101359.00;5029105;28;20121;-76
2023/04/22 05:57:04;;;;;;;11.82;6.18;;;22.90;90.60;;;27.37;31.52;101375.50;4986496;28;20025;-76
2023/04/22 05:59:30;;;;;;;17.60;6.13;;;23.40;89.30;;;27.95;30.75;101387.25;5017976;28;20132;-76
2023/04/22 06:01:56;;;;;;;15.73;6.13;;;23.80;88.10;;;27.83;30.78;101386.69;5004611;28;20120;-76
2023/04/22 06:04:22;;;;;;;12.23;5.63;;;24.20;88.30;;;28.15;30.36;101382.31;5003695;28;20072;-77
2023/04/22 06:06:52;;;;;;;11.90;5.78;;;23.70;85.80;;;26.35;32.61;101371.81;5000058;28;20517;-76
2023/04/22 06:09:20;;;;;;;10.15;5.43;;;23.60;88.60;;;25.81;33.06;101375.56;5003642;28;20075;-76
2023/04/22 06:11:46;;;;;;;8.02;5.22;;;23.20;88.70;;;25.69;33.32;101374.97;4998052;28;20037;-76
2023/04/22 06:14:12;;;;;;;10.07;5.95;;;23.40;90.00;;;26.66;32.18;101376.72;5005973;28;20045;-76
2023/04/22 06:16:40;;;;;;;10.07;5.68;;;23.30;88.30;;;25.53;33.46;101376.50;4966449;28;20048;-76
2023/04/22 06:19:06;;;;;;;13.90;6.05;;;23.00;89.50;;;23.60;35.60;101350.06;5007873;28;20033;-76
2023/04/22 06:21:32;;;;;;;9.50;5.50;;;22.20;90.00;;;22.04;37.64;101324.50;4991713;28;20074;-77
2023/04/22 06:24:00;;;;;;;12.48;5.55;;;21.00;90.10;;;21.00;39.25;101323.31;4986996;28;20046;-76
2023/04/22 06:26:26;;;;;;;9.48;5.38;;;20.90;91.60;;;21.30;38.74;101323.47;5007332;28;20034;-76
2023/04/22 06:28:52;;;;;;;11.88;5.82;;;20.70;92.20;;;21.12;39.42;101322.28;5021705;28;20489;-75
2023/04/22 06:31:20;;;;;;;13.02;6.45;;;20.50;92.10;;;20.83;40.23;101317.47;5003113;28;20172;-76
2023/04/22 06:33:46;;;;;;;15.98;6.22;;;20.10;92.50;;;19.01;42.79;101293.06;5003072;28;20505;-76
2023/04/22 06:36:13;;;;;;;10.52;5.70;;;19.30;93.60;;;18.82;44.34;101292.72;4994580;28;20041;-76
2023/04/22 06:38:38;;;;;;;13.77;6.18;;;19.30;94.40;;;20.83;41.46;101327.34;5001499;28;20102;-76
2023/04/22 06:41:05;;;;;;;12.65;6.32;;;20.00;94.20;;;22.73;38.87;101348.88;5001714;28;20033;-75
2023/04/22 06:43:31;;;;;;;17.13;6.35;;;21.20;92.70;;;24.09;36.87;101350.91;4988787;28;20071;-76
2023/04/22 06:45:56;;;;;;;13.07;6.15;;;22.30;91.40;;;24.09;36.16;101352.75;5020763;28;20086;-76
2023/04/22 06:48:23;;;;;;;10.27;5.72;;;23.00;90.90;;;24.96;35.45;101368.59;5011874;28;20086;-76
2023/04/22 06:50:51;;;;;;;18.15;6.22;;;23.20;90.10;;;24.54;36.03;101352.09;4995863;28;20045;-76
2023/04/22 06:53:17;;;;;;;12.60;5.50;;;23.30;89.50;;;23.97;36.56;101340.44;5011566;28;20049;-76
2023/04/22 06:55:42;;;;;;;13.60;6.00;;;23.80;88.50;;;25.17;34.98;101360.25;5008685;28;20112;-77
2023/04/22 06:58:08;;;;;;;15.63;5.72;;;24.40;84.80;;;24.71;34.58;101361.25;4994014;28;20116;-75
2023/04/22 07:00:34;;;;;;;13.02;5.35;;;24.70;85.50;;;24.33;34.92;101360.34;5004847;28;20048;-77
2023/04/22 07:03:00;;;;;;;14.00;6.05;;;24.70;85.80;;;25.00;35.24;101361.06;5009670;28;20366;-76
2023/04/22 07:05:30;;;;;;;11.00;5.80;;;24.90;86.80;;;24.98;35.11;101353.13;5004147;28;20094;-76
2023/04/22 07:07:56;;;;;;;11.60;4.15;;;24.40;82.00;;;22.40;36.03;101335.75;5002866;28;20033;-76
2023/04/22 07:10:22;;;;;;;12.23;6.20;;;23.80;84.90;;;23.33;36.82;101335.47;5011551;28;20058;-77
2023/04/22 07:12:48;;;;;;;13.98;5.97;;;24.20;85.20;;;23.91;35.47;101341.88;5011747;28;20044;-78
2023/04/22 07:15:14;;;;;;;11.18;6.07;;;24.40;82.90;;;23.89;35.40;101346.56;5013608;28;20409;-77
2023/04/22 07:17:39;;;;;;;11.85;6.47;;;24.80;84.30;;;25.29;34.25;101360.06;5008302;28;20580;-77
2023/04/22 07:20:09;;;;;;;11.32;5.90;;;25.20;82.00;;;24.63;35.07;101353.88;5001906;28;20129;-77
2023/04/22 07:22:35;;;;;;;10.48;5.20;;;25.70;83.50;;;26.03;33.64;101366.19;4993390;28;20132;-76
2023/04/22 07:25:01;;;;;;;17.15;5.57;;;26.40;82.90;;;26.74;32.89;101376.78;5002121;28;20575;-77
2023/04/22 07:27:27;;;;;;;9.35;5.82;;;26.90;80.50;;;26.97;32.24;101387.00;5001022;28;20066;-77
2023/04/22 07:29:53;;;;;;;9.98;5.57;;;27.30;81.70;;;27.19;31.87;101399.94;4977235;28;20033;-77
2023/04/22 07:32:19;;;;;;;8.75;6.10;;;27.70;80.00;;;27.59;31.66;101395.63;5032354;28;20040;-77
2023/04/22 07:34:52;;;;;;;9.77;5.68;;;28.10;79.90;;;27.78;31.77;101391.78;4982193;28;20033;-77
2023/04/22 07:37:18;;;;;;;11.10;5.22;;;28.10;76.80;;;26.71;31.83;101387.88;5002618;28;20032;-77
2023/04/22 07:39:43;;;;;;;14.32;5.82;;;28.00;76.70;;;26.60;32.42;101374.66;5023389;28;20051;-76
2023/04/22 07:42:09;;;;;;;10.88;5.50;;;27.60;74.90;;;25.74;32.45;101376.19;5009000;28;20029;-77
2023/04/22 07:44:35;;;;;;;10.27;5.28;;;27.20;77.90;;;25.96;33.48;101372.22;5007735;28;20033;-77
2023/04/22 07:47:01;;;;;;;15.90;5.93;;;27.10;74.00;;;25.19;32.77;101373.59;5007723;28;20033;-77
2023/04/22 07:49:29;;;;;;;8.52;5.70;;;27.20;76.60;;;26.21;32.66;101385.88;5000831;28;20454;-77
2023/04/22 07:51:55;;;;;;;11.73;5.97;;;27.40;77.80;;;26.81;32.71;101376.97;5004021;28;20414;-76
2023/04/22 07:54:21;;;;;;;15.35;5.57;;;27.40;76.10;;;26.24;32.49;101384.69;4994438;28;20029;-77
2023/04/22 07:56:47;;;;;;;10.63;5.45;;;27.10;75.10;;;25.50;33.34;101363.31;4991683;28;20387;-77
2023/04/22 07:59:13;;;;;;;13.63;5.88;;;26.80;76.10;;;25.28;33.72;101367.31;5017686;28;20112;-77
2023/04/22 08:01:39;;;;;;;10.68;5.75;;;26.80;76.80;;;25.68;33.40;101368.75;4994064;28;20394;-77
2023/04/22 08:04:07;;;;;;;12.27;5.20;;;26.30;77.20;;;24.56;34.94;101344.72;4973035;28;20030;-77
2023/04/22 08:06:33;;;;;;;14.50;5.57;;;25.90;77.30;;;24.16;35.27;101335.88;4981102;28;20025;-77
2023/04/22 08:08:59;;;;;;;11.88;5.90;;;25.80;78.70;;;24.50;35.31;101339.91;5013055;28;20079;-77
2023/04/22 08:11:25;;;;;;;17.23;5.65;;;26.00;79.30;;;25.28;34.58;101342.22;4997581;28;20037;-76
2023/04/22 08:13:50;;;;;;;11.90;5.80;;;25.60;79.10;;;24.30;35.40;101326.50;5002245;28;20041;-76
2023/04/22 08:16:16;;;;;;;9.40;5.88;;;25.90;79.70;;;25.14;34.62;101344.41;5017252;28;20044;-77
2023/04/22 08:18:42;;;;;;;8.07;5.60;;;26.00;77.40;;;24.92;34.37;101347.50;5009062;28;20037;-76
2023/04/22 08:21:08;;;;;;;8.93;5.53;;;26.20;78.20;;;25.44;33.89;101353.16;5030526;28;20144;-77
2023/04/22 08:23:34;;;;;;;11.38;5.68;;;26.30;78.10;;;25.60;33.59;101354.34;5001704;28;20041;-77
2023/04/22 08:26:00;;;;;;;12.02;5.25;;;26.30;77.20;;;25.20;34.43;101355.59;5021112;28;20056;-76
2023/04/22 08:28:25;;;;;;;10.48;5.43;;;26.20;78.50;;;25.32;34.12;101352.53;5015079;28;20428;-77
2023/04/22 08:30:51;;;;;;;12.02;5.65;;;26.20;79.50;;;25.31;34.50;101341.91;4988284;28;20413;-77
2023/04/22 08:33:17;;;;;;;9.75;4.78;;;25.70;77.00;;;23.52;35.29;101323.03;5029670;28;20034;-77
2023/04/22 08:35:43;;;;;;;12.25;5.05;;;25.40;79.00;;;24.20;35.58;101333.75;5004264;28;20669;-77
2023/04/22 08:38:09;;;;;;;9.52;4.95;;;25.30;79.90;;;24.16;35.83;101313.50;4988797;28;20187;-76
2023/04/22 08:40:35;;;;;;;9.40;4.20;;;24.80;78.50;;;23.49;35.67;101313.41;4988908;28;20414;-76
2023/04/22 08:43:01;;;;;;;10.63;4.63;;;24.60;79.90;;;23.23;36.28;101304.22;4973222;28;20041;-76
2023/04/22 08:45:28;;;;;;;13.50;4.88;;;24.30;78.00;;;23.24;35.50;101303.22;4984460;28;20064;-77
2023/04/22 08:47:54;;;;;;;9.48;4.53;;;;;;;22.35;36.65;101293.19;4984365;28;20140;-76
2023/04/22 08:50:21;;;;;;;10.20;4.25;;;23.30;81.50;;;22.29;37.91;101280.34;5013024;28;20045;-76
2023/04/22 08:52:47;;;;;;;10.60;4.80;;;23.20;81.30;;;22.29;37.31;101280.34;5004858;28;20377;-77
2023/04/22 08:55:13;;;;;;;10.32;4.88;;;23.00;82.50;;;21.89;38.10;101273.88;5004946;28;20045;-76
2023/04/22 08:57:40;;;;;;;7.22;4.80;;;22.50;83.50;;;21.17;39.58;101260.34;4995893;28;20510;-76
2023/04/22 09:00:08;;;;;;;12.18;4.90;;;22.30;84.40;;;21.24;39.13;101256.16;5006344;28;20059;-77
2023/04/22 09:02:38;;;;;;;7.72;3.97;;;22.00;84.80;;;20.27;40.40;101248.78;5003364;28;20215;-76
2023/04/22 09:05:07;;;;;;;9.52;4.60;;;21.70;87.20;;;20.29;41.34;101248.66;4977432;28;20040;-77
2023/04/22 09:07:35;;;;;;;7.35;4.72;;;21.60;87.80;;;20.62;41.43;101250.47;4975075;28;20028;-77
2023/04/22 09:10:01;;;;;;;10.40;4.65;;;21.60;87.10;;;20.58;41.20;101246.38;4982946;28;20029;-77
2023/04/22 09:12:30;;;;;;;9.90;4.53;;;21.60;86.90;;;20.78;40.93;101235.88;4981272;28;20546;-77
2023/04/22 09:14:56;;;;;;;8.25;4.70;;;21.60;84.40;;;20.65;39.82;101234.19;5012680;28;20037;-76
2023/04/22 09:17:37;;;;;;;8.23;4.50;;;21.30;84.40;;;19.75;41.09;101212.78;5004873;28;20033;-76
2023/04/22 09:20:11;;;;;;;10.75;4.70;;;21.20;87.60;;;19.90;42.00;101217.91;5002481;28;20029;-77
2023/04/22 09:22:48;;;;;;;10.95;4.28;;;21.00;87.60;;;19.82;41.46;101214.00;5025293;28;20035;-77
2023/04/22 09:25:26;;;;;;;9.45;4.30;;;20.80;90.10;;;19.40;42.75;101194.94;4987074;28;20504;-77
2023/04/22 09:27:58;;;;;;;7.90;4.18;;;20.70;89.20;;;19.59;42.88;101191.72;5012878;28;20041;-76
2023/04/22 09:30:37;;;;;;;9.40;4.13;;;20.80;86.50;;;19.87;41.39;101195.78;4999371;28;20054;-76
2023/04/22 09:33:12;;;;;;;7.80;4.32;;;20.90;86.30;;;19.99;40.61;101196.63;5015665;28;20045;-77
2023/04/22 09:35:41;;;;;;;7.20;3.92;;;20.90;88.20;;;19.98;41.96;101196.78;5030250;28;20394;-77
2023/04/22 09:38:10;;;;;;;9.05;4.00;;;21.00;88.60;;;20.12;41.88;101185.81;5019555;28;20029;-77
2023/04/22 09:40:43;;;;;;;7.93;4.28;;;21.00;89.20;;;20.13;42.10;101182.19;5028566;28;20413;-76
2023/04/22 09:43:12;;;;;;;6.60;4.28;;;21.10;85.90;;;20.12;40.62;101183.16;5032153;28;20063;-76
2023/04/22 09:45:42;;;;;;;8.02;4.35;;;21.20;89.50;;;20.43;42.08;101181.56;5015130;28;20526;-77
2023/04/22 09:48:14;;;;;;;5.63;4.25;;;21.10;88.60;;;20.26;42.02;101182.06;4996442;28;20044;-77
2023/04/22 09:50:46;;;;;;;9.35;4.28;;;21.20;88.90;;;20.46;42.02;101175.94;5023482;28;20031;-76
2023/04/22 09:53:19;;;;;;;8.27;4.40;;;21.30;86.70;;;20.35;40.88;101167.09;5023214;28;20051;-76
2023/04/22 09:55:51;;;;;;;7.55;4.10;;;21.40;89.00;;;20.54;41.86;101159.28;5000995;28;20100;-77
2023/04/22 09:58:22;;;;;;;6.43;4.07;;;21.40;89.10;;;20.48;41.99;101159.78;4983620;28;20119;-76
2023/04/22 10:00:55;;;;;;;6.32;3.58;;;21.20;87.10;;;20.16;41.67;101147.19;5014036;28;20037;-77
2023/04/22 10:03:24;;;;;;;8.43;4.18;;;21.10;83.80;;;19.96;40.64;101161.31;5049683;28;20037;-76
2023/04/22 10:05:55;;;;;;;12.32;4.40;;;21.00;85.80;;;19.81;40.73;101150.84;5032931;28;20029;-77
2023/04/22 10:08:22;;;;;;;7.93;3.45;;;21.10;85.60;;;19.83;40.38;101145.41;5004564;28;20036;-77
2023/04/22 10:10:50;;;;;;;7.68;3.88;;;21.10;86.80;;;20.14;40.97;101143.78;4993115;28;20037;-77